sensor_id;sensor_type;location;lat;lon;timestamp;P1;durP1;ratioP1;P2;durP2;ratioP2
28848;SDS011;15981;43.292;-2.888;2023-04-25T00:01:48;3.47;;;2.05;;
28848;SDS011;15981;43.292;-2.888;2023-04-25T00:04:14;3.20;;;1.85;;
28848;SDS011;15981;43.292;-2.888;2023-04-25T00:06:39;3.63;;;2.37;;
28848;SDS011;15981;43.292;-2.888;2023-04-25T00:09:05;3.03;;;2.05;;
28848;SDS011;15981;43.292;-2.888;2023-04-25T00:11:34;4.47;;;2.45;;
28848;SDS011;15981;43.292;-2.888;2023-04-25T00:14:00;3.83;;;2.50;;
28848;SDS011;15981;43.292;-2.888;2023-04-25T00:16:28;2.80;;;2.00;;
28848;SDS011;15981;43.292;-2.888;2023-04-25T00:18:54;4.15;;;2.13;;
28848;SDS011;15981;43.292;-2.888;2023-04-25T00:21:20;2.50;;;1.80;;
28848;SDS011;15981;43.292;-2.888;2023-04-25T00:23:46;3.80;;;2.20;;
28848;SDS011;15981;43.292;-2.888;2023-04-25T00:26:12;3.08;;;2.25;;
28848;SDS011;15981;43.292;-2.888;2023-04-25T00:28:38;2.83;;;2.10;;
28848;SDS011;15981;43.292;-2.888;2023-04-25T00:31:04;3.60;;;2.20;;
28848;SDS011;15981;43.292;-2.888;2023-04-25T00:33:30;2.50;;;2.08;;
28848;SDS011;15981;43.292;-2.888;2023-04-25T00:35:56;3.10;;;2.07;;
28848;SDS011;15981;43.292;-2.888;2023-04-25T00:38:21;4.20;;;2.50;;
28848;SDS011;15981;43.292;-2.888;2023-04-25T00:40:47;3.40;;;2.22;;
28848;SDS011;15981;43.292;-2.888;2023-04-25T00:43:13;2.67;;;2.00;;
28848;SDS011;15981;43.292;-2.888;2023-04-25T00:45:39;3.95;;;2.55;;
28848;SDS011;15981;43.292;-2.888;2023-04-25T00:48:05;3.72;;;2.28;;
28848;SDS011;15981;43.292;-2.888;2023-04-25T00:50:32;2.88;;;2.15;;
28848;SDS011;15981;43.292;-2.888;2023-04-25T00:52:58;4.40;;;2.35;;
28848;SDS011;15981;43.292;-2.888;2023-04-25T00:55:24;3.08;;;2.22;;
28848;SDS011;15981;43.292;-2.888;2023-04-25T00:57:50;3.10;;;2.20;;
28848;SDS011;15981;43.292;-2.888;2023-04-25T01:00:16;3.37;;;2.20;;
28848;SDS011;15981;43.292;-2.888;2023-04-25T01:02:42;3.03;;;2.10;;
28848;SDS011;15981;43.292;-2.888;2023-04-25T01:05:08;3.13;;;2.40;;
28848;SDS011;15981;43.292;-2.888;2023-04-25T01:07:34;4.70;;;2.77;;
28848;SDS011;15981;43.292;-2.888;2023-04-25T01:10:00;3.75;;;2.55;;
28848;SDS011;15981;43.292;-2.888;2023-04-25T01:12:26;4.47;;;2.53;;
28848;SDS011;15981;43.292;-2.888;2023-04-25T01:14:52;3.72;;;2.53;;
28848;SDS011;15981;43.292;-2.888;2023-04-25T01:17:18;3.83;;;2.67;;
28848;SDS011;15981;43.292;-2.888;2023-04-25T01:19:44;3.78;;;2.50;;
28848;SDS011;15981;43.292;-2.888;2023-04-25T01:22:13;3.53;;;2.60;;
28848;SDS011;15981;43.292;-2.888;2023-04-25T01:24:39;4.47;;;2.50;;
28848;SDS011;15981;43.292;-2.888;2023-04-25T01:27:05;3.78;;;2.40;;
28848;SDS011;15981;43.292;-2.888;2023-04-25T01:29:31;4.43;;;2.53;;
28848;SDS011;15981;43.292;-2.888;2023-04-25T01:31:57;3.63;;;2.55;;
28848;SDS011;15981;43.292;-2.888;2023-04-25T01:34:24;5.65;;;2.50;;
28848;SDS011;15981;43.292;-2.888;2023-04-25T01:36:50;3.75;;;2.70;;
28848;SDS011;15981;43.292;-2.888;2023-04-25T01:39:17;3.83;;;2.63;;
28848;SDS011;15981;43.292;-2.888;2023-04-25T01:41:43;4.97;;;2.75;;
28848;SDS011;15981;43.292;-2.888;2023-04-25T01:44:08;3.97;;;2.60;;
28848;SDS011;15981;43.292;-2.888;2023-04-25T01:46:34;4.28;;;2.70;;
28848;SDS011;15981;43.292;-2.888;2023-04-25T01:49:00;3.67;;;2.50;;
28848;SDS011;15981;43.292;-2.888;2023-04-25T01:51:26;4.13;;;2.30;;
28848;SDS011;15981;43.292;-2.888;2023-04-25T01:53:52;3.53;;;2.30;;
28848;SDS011;15981;43.292;-2.888;2023-04-25T01:56:18;4.30;;;2.70;;
28848;SDS011;15981;43.292;-2.888;2023-04-25T01:58:43;3.05;;;2.50;;
28848;SDS011;15981;43.292;-2.888;2023-04-25T02:01:10;4.03;;;2.53;;
28848;SDS011;15981;43.292;-2.888;2023-04-25T02:03:36;4.63;;;2.60;;
28848;SDS011;15981;43.292;-2.888;2023-04-25T02:06:01;4.20;;;2.58;;
28848;SDS011;15981;43.292;-2.888;2023-04-25T02:08:27;4.35;;;2.75;;
28848;SDS011;15981;43.292;-2.888;2023-04-25T02:10:53;3.47;;;2.50;;
28848;SDS011;15981;43.292;-2.888;2023-04-25T02:13:18;3.70;;;2.73;;
28848;SDS011;15981;43.292;-2.888;2023-04-25T02:15:44;4.55;;;2.60;;
28848;SDS011;15981;43.292;-2.888;2023-04-25T02:18:10;3.47;;;2.47;;
28848;SDS011;15981;43.292;-2.888;2023-04-25T02:20:36;3.95;;;2.53;;
28848;SDS011;15981;43.292;-2.888;2023-04-25T02:23:02;3.78;;;2.70;;
28848;SDS011;15981;43.292;-2.888;2023-04-25T02:25:28;4.38;;;2.72;;
28848;SDS011;15981;43.292;-2.888;2023-04-25T02:27:54;4.47;;;2.70;;
28848;SDS011;15981;43.292;-2.888;2023-04-25T02:30:20;3.40;;;2.43;;
28848;SDS011;15981;43.292;-2.888;2023-04-25T02:32:45;3.70;;;2.45;;
28848;SDS011;15981;43.292;-2.888;2023-04-25T02:35:11;4.70;;;2.75;;
28848;SDS011;15981;43.292;-2.888;2023-04-25T02:37:37;3.40;;;2.23;;
28848;SDS011;15981;43.292;-2.888;2023-04-25T02:40:03;4.25;;;3.03;;
28848;SDS011;15981;43.292;-2.888;2023-04-25T02:42:30;4.32;;;2.78;;
28848;SDS011;15981;43.292;-2.888;2023-04-25T02:44:55;4.60;;;2.72;;
28848;SDS011;15981;43.292;-2.888;2023-04-25T02:47:21;4.30;;;2.90;;
28848;SDS011;15981;43.292;-2.888;2023-04-25T02:49:47;3.63;;;2.70;;
28848;SDS011;15981;43.292;-2.888;2023-04-25T02:52:13;3.45;;;2.53;;
28848;SDS011;15981;43.292;-2.888;2023-04-25T02:54:39;3.40;;;2.60;;
28848;SDS011;15981;43.292;-2.888;2023-04-25T02:57:05;5.38;;;2.65;;
28848;SDS011;15981;43.292;-2.888;2023-04-25T02:59:31;3.60;;;2.53;;
28848;SDS011;15981;43.292;-2.888;2023-04-25T03:01:56;3.70;;;2.60;;
28848;SDS011;15981;43.292;-2.888;2023-04-25T03:04:22;4.13;;;2.60;;
28848;SDS011;15981;43.292;-2.888;2023-04-25T03:06:52;4.22;;;2.97;;
28848;SDS011;15981;43.292;-2.888;2023-04-25T03:09:18;4.03;;;2.83;;
28848;SDS011;15981;43.292;-2.888;2023-04-25T03:11:44;5.47;;;2.85;;
28848;SDS011;15981;43.292;-2.888;2023-04-25T03:14:10;5.00;;;2.83;;
28848;SDS011;15981;43.292;-2.888;2023-04-25T03:16:36;5.15;;;2.72;;
28848;SDS011;15981;43.292;-2.888;2023-04-25T03:19:02;4.07;;;2.53;;
28848;SDS011;15981;43.292;-2.888;2023-04-25T03:21:28;4.10;;;2.70;;
28848;SDS011;15981;43.292;-2.888;2023-04-25T03:23:54;4.78;;;2.72;;
28848;SDS011;15981;43.292;-2.888;2023-04-25T03:26:19;4.50;;;2.78;;
28848;SDS011;15981;43.292;-2.888;2023-04-25T03:28:45;5.65;;;3.13;;
28848;SDS011;15981;43.292;-2.888;2023-04-25T03:31:11;3.93;;;2.60;;
28848;SDS011;15981;43.292;-2.888;2023-04-25T03:33:37;4.82;;;2.90;;
28848;SDS011;15981;43.292;-2.888;2023-04-25T03:36:03;4.75;;;3.10;;
28848;SDS011;15981;43.292;-2.888;2023-04-25T03:38:28;4.17;;;3.07;;
28848;SDS011;15981;43.292;-2.888;2023-04-25T03:40:54;4.53;;;2.92;;
28848;SDS011;15981;43.292;-2.888;2023-04-25T03:43:21;4.80;;;2.92;;
28848;SDS011;15981;43.292;-2.888;2023-04-25T03:45:47;3.92;;;2.92;;
28848;SDS011;15981;43.292;-2.888;2023-04-25T03:48:13;4.40;;;2.90;;
28848;SDS011;15981;43.292;-2.888;2023-04-25T03:50:38;5.45;;;3.17;;
28848;SDS011;15981;43.292;-2.888;2023-04-25T03:53:04;4.97;;;3.00;;
28848;SDS011;15981;43.292;-2.888;2023-04-25T03:55:30;4.40;;;2.75;;
28848;SDS011;15981;43.292;-2.888;2023-04-25T03:57:57;5.18;;;3.08;;
28848;SDS011;15981;43.292;-2.888;2023-04-25T04:00:23;4.32;;;3.00;;
28848;SDS011;15981;43.292;-2.888;2023-04-25T04:02:49;3.90;;;2.63;;
28848;SDS011;15981;43.292;-2.888;2023-04-25T04:05:15;3.60;;;2.90;;
28848;SDS011;15981;43.292;-2.888;2023-04-25T04:07:41;4.97;;;3.17;;
28848;SDS011;15981;43.292;-2.888;2023-04-25T04:10:08;3.72;;;2.80;;
28848;SDS011;15981;43.292;-2.888;2023-04-25T04:12:34;4.33;;;2.90;;
28848;SDS011;15981;43.292;-2.888;2023-04-25T04:15:00;4.85;;;3.13;;
28848;SDS011;15981;43.292;-2.888;2023-04-25T04:17:26;4.20;;;3.00;;
28848;SDS011;15981;43.292;-2.888;2023-04-25T04:19:51;4.75;;;2.80;;
28848;SDS011;15981;43.292;-2.888;2023-04-25T04:22:17;5.83;;;3.10;;
28848;SDS011;15981;43.292;-2.888;2023-04-25T04:24:43;4.10;;;2.90;;
28848;SDS011;15981;43.292;-2.888;2023-04-25T04:27:11;3.85;;;2.97;;
28848;SDS011;15981;43.292;-2.888;2023-04-25T04:29:38;5.33;;;3.20;;
28848;SDS011;15981;43.292;-2.888;2023-04-25T04:32:04;4.35;;;2.92;;
28848;SDS011;15981;43.292;-2.888;2023-04-25T04:34:30;4.57;;;2.80;;
28848;SDS011;15981;43.292;-2.888;2023-04-25T04:36:56;5.23;;;3.20;;
28848;SDS011;15981;43.292;-2.888;2023-04-25T04:39:22;4.30;;;3.17;;
28848;SDS011;15981;43.292;-2.888;2023-04-25T04:41:48;4.63;;;2.85;;
28848;SDS011;15981;43.292;-2.888;2023-04-25T04:44:14;4.68;;;3.13;;
28848;SDS011;15981;43.292;-2.888;2023-04-25T04:46:40;4.18;;;2.88;;
28848;SDS011;15981;43.292;-2.888;2023-04-25T04:49:10;4.35;;;3.13;;
28848;SDS011;15981;43.292;-2.888;2023-04-25T04:51:36;4.70;;;3.20;;
28848;SDS011;15981;43.292;-2.888;2023-04-25T04:54:02;4.67;;;3.00;;
28848;SDS011;15981;43.292;-2.888;2023-04-25T04:56:28;4.55;;;3.03;;
28848;SDS011;15981;43.292;-2.888;2023-04-25T04:58:56;4.82;;;3.30;;
28848;SDS011;15981;43.292;-2.888;2023-04-25T05:01:22;4.78;;;3.13;;
28848;SDS011;15981;43.292;-2.888;2023-04-25T05:03:48;4.60;;;3.28;;
28848;SDS011;15981;43.292;-2.888;2023-04-25T05:06:13;5.33;;;3.37;;
28848;SDS011;15981;43.292;-2.888;2023-04-25T05:08:39;5.13;;;3.50;;
28848;SDS011;15981;43.292;-2.888;2023-04-25T05:11:05;4.97;;;3.30;;
28848;SDS011;15981;43.292;-2.888;2023-04-25T05:13:30;4.70;;;3.00;;
28848;SDS011;15981;43.292;-2.888;2023-04-25T05:15:56;4.45;;;3.20;;
28848;SDS011;15981;43.292;-2.888;2023-04-25T05:18:22;5.13;;;3.60;;
28848;SDS011;15981;43.292;-2.888;2023-04-25T05:20:48;5.07;;;3.20;;
28848;SDS011;15981;43.292;-2.888;2023-04-25T05:23:13;4.63;;;3.17;;
28848;SDS011;15981;43.292;-2.888;2023-04-25T05:25:39;4.10;;;3.27;;
28848;SDS011;15981;43.292;-2.888;2023-04-25T05:28:05;4.85;;;3.33;;
28848;SDS011;15981;43.292;-2.888;2023-04-25T05:30:31;5.57;;;3.35;;
28848;SDS011;15981;43.292;-2.888;2023-04-25T05:32:56;5.37;;;3.20;;
28848;SDS011;15981;43.292;-2.888;2023-04-25T05:35:22;5.35;;;3.58;;
28848;SDS011;15981;43.292;-2.888;2023-04-25T05:37:48;4.87;;;3.30;;
28848;SDS011;15981;43.292;-2.888;2023-04-25T05:40:13;4.80;;;3.22;;
28848;SDS011;15981;43.292;-2.888;2023-04-25T05:42:39;5.80;;;2.90;;
28848;SDS011;15981;43.292;-2.888;2023-04-25T05:45:05;4.30;;;2.93;;
28848;SDS011;15981;43.292;-2.888;2023-04-25T05:47:31;4.00;;;3.00;;
28848;SDS011;15981;43.292;-2.888;2023-04-25T05:49:57;4.35;;;3.20;;
28848;SDS011;15981;43.292;-2.888;2023-04-25T05:52:22;3.97;;;2.77;;
28848;SDS011;15981;43.292;-2.888;2023-04-25T05:54:48;5.25;;;3.30;;
28848;SDS011;15981;43.292;-2.888;2023-04-25T05:57:23;4.72;;;2.95;;
28848;SDS011;15981;43.292;-2.888;2023-04-25T05:59:49;4.28;;;2.80;;
28848;SDS011;15981;43.292;-2.888;2023-04-25T06:02:15;4.18;;;2.72;;
28848;SDS011;15981;43.292;-2.888;2023-04-25T06:04:41;4.35;;;2.92;;
28848;SDS011;15981;43.292;-2.888;2023-04-25T06:07:07;3.40;;;2.73;;
28848;SDS011;15981;43.292;-2.888;2023-04-25T06:09:32;4.38;;;3.15;;
28848;SDS011;15981;43.292;-2.888;2023-04-25T06:11:58;4.73;;;3.17;;
28848;SDS011;15981;43.292;-2.888;2023-04-25T06:14:24;6.22;;;3.60;;
28848;SDS011;15981;43.292;-2.888;2023-04-25T06:16:50;5.80;;;3.73;;
28848;SDS011;15981;43.292;-2.888;2023-04-25T06:19:15;6.80;;;3.67;;
28848;SDS011;15981;43.292;-2.888;2023-04-25T06:21:42;5.10;;;3.58;;
28848;SDS011;15981;43.292;-2.888;2023-04-25T06:24:08;3.90;;;3.03;;
28848;SDS011;15981;43.292;-2.888;2023-04-25T06:26:34;4.57;;;3.40;;
28848;SDS011;15981;43.292;-2.888;2023-04-25T06:28:59;4.60;;;2.85;;
28848;SDS011;15981;43.292;-2.888;2023-04-25T06:31:25;4.50;;;3.07;;
28848;SDS011;15981;43.292;-2.888;2023-04-25T06:33:51;6.13;;;3.42;;
28848;SDS011;15981;43.292;-2.888;2023-04-25T06:36:20;5.35;;;3.13;;
28848;SDS011;15981;43.292;-2.888;2023-04-25T06:38:50;8.23;;;3.83;;
28848;SDS011;15981;43.292;-2.888;2023-04-25T06:41:18;4.65;;;3.35;;
28848;SDS011;15981;43.292;-2.888;2023-04-25T06:43:45;5.53;;;3.43;;
28848;SDS011;15981;43.292;-2.888;2023-04-25T06:46:11;4.77;;;3.23;;
28848;SDS011;15981;43.292;-2.888;2023-04-25T06:48:36;6.00;;;3.78;;
28848;SDS011;15981;43.292;-2.888;2023-04-25T06:51:02;6.80;;;3.93;;
28848;SDS011;15981;43.292;-2.888;2023-04-25T06:53:28;6.45;;;4.00;;
28848;SDS011;15981;43.292;-2.888;2023-04-25T06:55:54;6.10;;;3.95;;
28848;SDS011;15981;43.292;-2.888;2023-04-25T06:58:20;5.97;;;4.22;;
28848;SDS011;15981;43.292;-2.888;2023-04-25T07:00:46;6.53;;;4.43;;
28848;SDS011;15981;43.292;-2.888;2023-04-25T07:03:11;6.77;;;4.60;;
28848;SDS011;15981;43.292;-2.888;2023-04-25T07:05:37;7.32;;;4.85;;
28848;SDS011;15981;43.292;-2.888;2023-04-25T07:08:03;7.67;;;5.13;;
28848;SDS011;15981;43.292;-2.888;2023-04-25T07:10:29;8.05;;;5.22;;
28848;SDS011;15981;43.292;-2.888;2023-04-25T07:12:55;8.15;;;5.07;;
28848;SDS011;15981;43.292;-2.888;2023-04-25T07:15:20;7.53;;;5.07;;
28848;SDS011;15981;43.292;-2.888;2023-04-25T07:17:46;7.57;;;5.50;;
28848;SDS011;15981;43.292;-2.888;2023-04-25T07:20:12;6.78;;;5.32;;
28848;SDS011;15981;43.292;-2.888;2023-04-25T07:22:38;8.00;;;5.30;;
28848;SDS011;15981;43.292;-2.888;2023-04-25T07:25:03;8.90;;;5.80;;
28848;SDS011;15981;43.292;-2.888;2023-04-25T07:27:30;7.15;;;4.97;;
28848;SDS011;15981;43.292;-2.888;2023-04-25T07:29:56;7.97;;;4.85;;
28848;SDS011;15981;43.292;-2.888;2023-04-25T07:32:21;8.68;;;5.35;;
28848;SDS011;15981;43.292;-2.888;2023-04-25T07:34:47;9.63;;;6.13;;
28848;SDS011;15981;43.292;-2.888;2023-04-25T07:37:13;7.88;;;5.70;;
28848;SDS011;15981;43.292;-2.888;2023-04-25T07:39:39;8.63;;;5.60;;
28848;SDS011;15981;43.292;-2.888;2023-04-25T07:42:05;9.15;;;5.75;;
28848;SDS011;15981;43.292;-2.888;2023-04-25T07:44:33;8.50;;;5.70;;
28848;SDS011;15981;43.292;-2.888;2023-04-25T07:47:04;7.95;;;5.97;;
28848;SDS011;15981;43.292;-2.888;2023-04-25T07:49:35;9.32;;;6.10;;
28848;SDS011;15981;43.292;-2.888;2023-04-25T07:52:01;9.98;;;6.20;;
28848;SDS011;15981;43.292;-2.888;2023-04-25T07:54:27;7.65;;;5.50;;
28848;SDS011;15981;43.292;-2.888;2023-04-25T07:56:53;9.82;;;6.03;;
28848;SDS011;15981;43.292;-2.888;2023-04-25T07:59:18;9.15;;;5.45;;
28848;SDS011;15981;43.292;-2.888;2023-04-25T08:01:44;7.70;;;4.90;;
28848;SDS011;15981;43.292;-2.888;2023-04-25T08:04:10;8.10;;;4.88;;
28848;SDS011;15981;43.292;-2.888;2023-04-25T08:06:36;7.22;;;4.40;;
28848;SDS011;15981;43.292;-2.888;2023-04-25T08:09:02;8.38;;;4.70;;
28848;SDS011;15981;43.292;-2.888;2023-04-25T08:11:28;6.15;;;3.88;;
28848;SDS011;15981;43.292;-2.888;2023-04-25T08:13:54;6.83;;;3.90;;
28848;SDS011;15981;43.292;-2.888;2023-04-25T08:16:20;7.70;;;4.05;;
28848;SDS011;15981;43.292;-2.888;2023-04-25T08:18:45;5.53;;;4.30;;
28848;SDS011;15981;43.292;-2.888;2023-04-25T08:21:11;5.00;;;3.90;;
28848;SDS011;15981;43.292;-2.888;2023-04-25T08:23:38;5.57;;;4.00;;
28848;SDS011;15981;43.292;-2.888;2023-04-25T08:26:03;6.57;;;4.50;;
28848;SDS011;15981;43.292;-2.888;2023-04-25T08:28:30;5.88;;;4.20;;
28848;SDS011;15981;43.292;-2.888;2023-04-25T08:30:56;7.00;;;4.40;;
28848;SDS011;15981;43.292;-2.888;2023-04-25T08:33:22;6.97;;;4.43;;
28848;SDS011;15981;43.292;-2.888;2023-04-25T08:35:48;5.40;;;4.03;;
28848;SDS011;15981;43.292;-2.888;2023-04-25T08:38:14;6.37;;;4.50;;
28848;SDS011;15981;43.292;-2.888;2023-04-25T08:40:40;8.50;;;4.90;;
28848;SDS011;15981;43.292;-2.888;2023-04-25T08:43:06;7.23;;;4.20;;
28848;SDS011;15981;43.292;-2.888;2023-04-25T08:45:40;6.38;;;4.10;;
28848;SDS011;15981;43.292;-2.888;2023-04-25T08:48:10;5.95;;;4.05;;
28848;SDS011;15981;43.292;-2.888;2023-04-25T08:50:41;5.80;;;3.87;;
28848;SDS011;15981;43.292;-2.888;2023-04-25T08:53:10;7.07;;;3.83;;
28848;SDS011;15981;43.292;-2.888;2023-04-25T08:55:39;5.27;;;3.93;;
28848;SDS011;15981;43.292;-2.888;2023-04-25T08:58:06;6.23;;;4.10;;
28848;SDS011;15981;43.292;-2.888;2023-04-25T09:00:32;7.30;;;3.50;;
28848;SDS011;15981;43.292;-2.888;2023-04-25T09:02:58;7.18;;;4.03;;
28848;SDS011;15981;43.292;-2.888;2023-04-25T09:05:24;6.25;;;3.25;;
28848;SDS011;15981;43.292;-2.888;2023-04-25T09:07:50;7.05;;;3.90;;
28848;SDS011;15981;43.292;-2.888;2023-04-25T09:10:16;5.15;;;3.20;;
28848;SDS011;15981;43.292;-2.888;2023-04-25T09:12:41;7.87;;;4.63;;
28848;SDS011;15981;43.292;-2.888;2023-04-25T09:15:08;6.18;;;3.10;;
28848;SDS011;15981;43.292;-2.888;2023-04-25T09:17:35;5.07;;;3.40;;
28848;SDS011;15981;43.292;-2.888;2023-04-25T09:20:06;5.15;;;3.35;;
28848;SDS011;15981;43.292;-2.888;2023-04-25T09:22:32;6.13;;;3.45;;
28848;SDS011;15981;43.292;-2.888;2023-04-25T09:24:59;4.38;;;3.03;;
28848;SDS011;15981;43.292;-2.888;2023-04-25T09:27:27;6.10;;;3.47;;
28848;SDS011;15981;43.292;-2.888;2023-04-25T09:29:58;7.35;;;3.72;;
28848;SDS011;15981;43.292;-2.888;2023-04-25T09:32:26;7.30;;;3.63;;
28848;SDS011;15981;43.292;-2.888;2023-04-25T09:34:52;7.50;;;4.00;;
28848;SDS011;15981;43.292;-2.888;2023-04-25T09:37:28;9.00;;;3.92;;
28848;SDS011;15981;43.292;-2.888;2023-04-25T09:39:54;7.93;;;4.20;;
28848;SDS011;15981;43.292;-2.888;2023-04-25T09:42:24;9.80;;;4.00;;
28848;SDS011;15981;43.292;-2.888;2023-04-25T09:44:53;13.87;;;5.10;;
28848;SDS011;15981;43.292;-2.888;2023-04-25T09:47:19;10.93;;;4.57;;
28848;SDS011;15981;43.292;-2.888;2023-04-25T09:49:48;13.23;;;5.57;;
28848;SDS011;15981;43.292;-2.888;2023-04-25T09:52:14;9.23;;;4.67;;
28848;SDS011;15981;43.292;-2.888;2023-04-25T09:54:41;10.55;;;4.45;;
28848;SDS011;15981;43.292;-2.888;2023-04-25T09:57:11;12.27;;;4.83;;
28848;SDS011;15981;43.292;-2.888;2023-04-25T09:59:38;10.02;;;4.30;;
28848;SDS011;15981;43.292;-2.888;2023-04-25T10:02:04;22.15;;;6.93;;
28848;SDS011;15981;43.292;-2.888;2023-04-25T10:04:30;33.33;;;11.38;;
28848;SDS011;15981;43.292;-2.888;2023-04-25T10:06:59;35.70;;;10.00;;
28848;SDS011;15981;43.292;-2.888;2023-04-25T10:09:26;31.30;;;9.40;;
28848;SDS011;15981;43.292;-2.888;2023-04-25T10:11:53;30.83;;;8.52;;
28848;SDS011;15981;43.292;-2.888;2023-04-25T10:14:19;26.77;;;8.50;;
28848;SDS011;15981;43.292;-2.888;2023-04-25T10:16:45;22.97;;;8.00;;
28848;SDS011;15981;43.292;-2.888;2023-04-25T10:19:11;17.65;;;7.00;;
28848;SDS011;15981;43.292;-2.888;2023-04-25T10:21:46;19.85;;;7.07;;
28848;SDS011;15981;43.292;-2.888;2023-04-25T10:24:12;18.33;;;6.45;;
28848;SDS011;15981;43.292;-2.888;2023-04-25T10:26:38;16.85;;;6.70;;
28848;SDS011;15981;43.292;-2.888;2023-04-25T10:29:03;11.93;;;5.68;;
28848;SDS011;15981;43.292;-2.888;2023-04-25T10:31:30;15.20;;;5.53;;
28848;SDS011;15981;43.292;-2.888;2023-04-25T10:33:56;10.30;;;4.75;;
28848;SDS011;15981;43.292;-2.888;2023-04-25T10:36:22;9.10;;;4.43;;
28848;SDS011;15981;43.292;-2.888;2023-04-25T10:38:49;8.98;;;3.90;;
28848;SDS011;15981;43.292;-2.888;2023-04-25T10:41:18;9.75;;;4.13;;
28848;SDS011;15981;43.292;-2.888;2023-04-25T10:43:44;7.07;;;3.77;;
28848;SDS011;15981;43.292;-2.888;2023-04-25T10:48:55;8.55;;;3.42;;
28848;SDS011;15981;43.292;-2.888;2023-04-25T10:53:57;8.30;;;3.22;;
28848;SDS011;15981;43.292;-2.888;2023-04-25T10:59:28;7.57;;;3.00;;
28848;SDS011;15981;43.292;-2.888;2023-04-25T11:01:49;7.03;;;3.08;;
28848;SDS011;15981;43.292;-2.888;2023-04-25T11:04:20;5.88;;;3.13;;
28848;SDS011;15981;43.292;-2.888;2023-04-25T11:06:50;5.87;;;2.80;;
28848;SDS011;15981;43.292;-2.888;2023-04-25T11:09:23;4.50;;;2.47;;
28848;SDS011;15981;43.292;-2.888;2023-04-25T11:11:58;4.20;;;2.78;;
28848;SDS011;15981;43.292;-2.888;2023-04-25T11:14:25;5.00;;;2.90;;
28848;SDS011;15981;43.292;-2.888;2023-04-25T11:16:57;4.43;;;1.90;;
28848;SDS011;15981;43.292;-2.888;2023-04-25T11:19:24;3.72;;;2.10;;
28848;SDS011;15981;43.292;-2.888;2023-04-25T11:21:49;3.33;;;2.40;;
28848;SDS011;15981;43.292;-2.888;2023-04-25T11:24:16;4.55;;;2.10;;
28848;SDS011;15981;43.292;-2.888;2023-04-25T11:26:42;3.22;;;1.85;;
28848;SDS011;15981;43.292;-2.888;2023-04-25T11:29:08;1.90;;;1.40;;
28848;SDS011;15981;43.292;-2.888;2023-04-25T11:31:34;3.30;;;1.60;;
28848;SDS011;15981;43.292;-2.888;2023-04-25T11:34:00;3.45;;;1.38;;
28848;SDS011;15981;43.292;-2.888;2023-04-25T11:36:26;3.80;;;1.40;;
28848;SDS011;15981;43.292;-2.888;2023-04-25T11:38:52;1.90;;;1.40;;
28848;SDS011;15981;43.292;-2.888;2023-04-25T11:41:20;2.13;;;1.40;;
28848;SDS011;15981;43.292;-2.888;2023-04-25T11:43:47;2.58;;;1.52;;
28848;SDS011;15981;43.292;-2.888;2023-04-25T11:46:14;9.95;;;5.78;;
28848;SDS011;15981;43.292;-2.888;2023-04-25T11:48:41;19.30;;;12.02;;
28848;SDS011;15981;43.292;-2.888;2023-04-25T11:51:07;29.95;;;17.67;;
28848;SDS011;15981;43.292;-2.888;2023-04-25T11:53:33;32.00;;;17.77;;
28848;SDS011;15981;43.292;-2.888;2023-04-25T11:55:58;32.57;;;18.77;;
28848;SDS011;15981;43.292;-2.888;2023-04-25T11:58:25;27.15;;;17.52;;
28848;SDS011;15981;43.292;-2.888;2023-04-25T12:00:51;29.52;;;17.98;;
28848;SDS011;15981;43.292;-2.888;2023-04-25T12:03:17;29.48;;;17.88;;
28848;SDS011;15981;43.292;-2.888;2023-04-25T12:05:43;25.87;;;16.03;;
28848;SDS011;15981;43.292;-2.888;2023-04-25T12:08:10;20.75;;;13.55;;
28848;SDS011;15981;43.292;-2.888;2023-04-25T12:10:40;21.08;;;13.18;;
28848;SDS011;15981;43.292;-2.888;2023-04-25T12:13:22;21.08;;;12.88;;
28848;SDS011;15981;43.292;-2.888;2023-04-25T12:15:48;14.05;;;8.95;;
28848;SDS011;15981;43.292;-2.888;2023-04-25T12:18:14;10.57;;;6.85;;
28848;SDS011;15981;43.292;-2.888;2023-04-25T12:20:41;8.02;;;5.03;;
28848;SDS011;15981;43.292;-2.888;2023-04-25T12:23:06;7.75;;;4.38;;
28848;SDS011;15981;43.292;-2.888;2023-04-25T12:25:33;4.60;;;2.97;;
28848;SDS011;15981;43.292;-2.888;2023-04-25T12:30:57;4.88;;;3.20;;
28848;SDS011;15981;43.292;-2.888;2023-04-25T12:33:23;3.85;;;2.40;;
28848;SDS011;15981;43.292;-2.888;2023-04-25T12:35:49;3.47;;;2.00;;
28848;SDS011;15981;43.292;-2.888;2023-04-25T12:38:28;3.00;;;1.60;;
28848;SDS011;15981;43.292;-2.888;2023-04-25T12:40:55;2.53;;;1.55;;
28848;SDS011;15981;43.292;-2.888;2023-04-25T12:43:21;1.95;;;1.30;;
28848;SDS011;15981;43.292;-2.888;2023-04-25T12:45:47;2.77;;;1.67;;
28848;SDS011;15981;43.292;-2.888;2023-04-25T12:48:14;4.67;;;2.47;;
28848;SDS011;15981;43.292;-2.888;2023-04-25T12:50:40;5.00;;;3.30;;
28848;SDS011;15981;43.292;-2.888;2023-04-25T12:53:06;7.60;;;5.43;;
28848;SDS011;15981;43.292;-2.888;2023-04-25T12:55:32;11.63;;;6.45;;
28848;SDS011;15981;43.292;-2.888;2023-04-25T12:57:57;6.50;;;4.60;;
28848;SDS011;15981;43.292;-2.888;2023-04-25T13:00:23;6.57;;;4.47;;
28848;SDS011;15981;43.292;-2.888;2023-04-25T13:02:50;8.73;;;5.23;;
28848;SDS011;15981;43.292;-2.888;2023-04-25T13:05:15;10.13;;;6.57;;
28848;SDS011;15981;43.292;-2.888;2023-04-25T13:07:41;9.20;;;5.93;;
28848;SDS011;15981;43.292;-2.888;2023-04-25T13:10:07;8.33;;;5.07;;
28848;SDS011;15981;43.292;-2.888;2023-04-25T13:12:33;7.75;;;4.28;;
28848;SDS011;15981;43.292;-2.888;2023-04-25T13:14:58;6.03;;;3.30;;
28848;SDS011;15981;43.292;-2.888;2023-04-25T13:17:24;6.07;;;3.00;;
28848;SDS011;15981;43.292;-2.888;2023-04-25T13:19:50;7.28;;;4.30;;
28848;SDS011;15981;43.292;-2.888;2023-04-25T13:22:16;8.00;;;4.70;;
28848;SDS011;15981;43.292;-2.888;2023-04-25T13:24:42;9.20;;;5.75;;
28848;SDS011;15981;43.292;-2.888;2023-04-25T13:27:08;9.07;;;6.20;;
28848;SDS011;15981;43.292;-2.888;2023-04-25T13:29:34;9.27;;;5.85;;
28848;SDS011;15981;43.292;-2.888;2023-04-25T13:32:01;10.88;;;6.30;;
28848;SDS011;15981;43.292;-2.888;2023-04-25T13:34:28;10.77;;;6.35;;
28848;SDS011;15981;43.292;-2.888;2023-04-25T13:36:53;9.25;;;6.10;;
28848;SDS011;15981;43.292;-2.888;2023-04-25T13:39:19;9.75;;;5.82;;
28848;SDS011;15981;43.292;-2.888;2023-04-25T13:41:45;8.93;;;6.20;;
28848;SDS011;15981;43.292;-2.888;2023-04-25T13:44:10;12.48;;;6.40;;
28848;SDS011;15981;43.292;-2.888;2023-04-25T13:46:36;10.38;;;6.72;;
28848;SDS011;15981;43.292;-2.888;2023-04-25T13:49:05;8.80;;;6.13;;
28848;SDS011;15981;43.292;-2.888;2023-04-25T13:51:31;8.88;;;6.10;;
28848;SDS011;15981;43.292;-2.888;2023-04-25T13:53:57;10.60;;;5.83;;
28848;SDS011;15981;43.292;-2.888;2023-04-25T13:56:22;8.73;;;5.57;;
28848;SDS011;15981;43.292;-2.888;2023-04-25T13:58:52;10.82;;;5.97;;
28848;SDS011;15981;43.292;-2.888;2023-04-25T14:01:17;7.97;;;4.78;;
28848;SDS011;15981;43.292;-2.888;2023-04-25T14:03:43;9.32;;;5.38;;
28848;SDS011;15981;43.292;-2.888;2023-04-25T14:06:09;7.18;;;4.97;;
28848;SDS011;15981;43.292;-2.888;2023-04-25T14:08:36;7.63;;;4.70;;
28848;SDS011;15981;43.292;-2.888;2023-04-25T14:11:02;190.00;;;47.17;;
28848;SDS011;15981;43.292;-2.888;2023-04-25T14:13:28;42.97;;;12.55;;
28848;SDS011;15981;43.292;-2.888;2023-04-25T14:15:54;27.55;;;10.73;;
28848;SDS011;15981;43.292;-2.888;2023-04-25T14:18:20;27.60;;;9.77;;
28848;SDS011;15981;43.292;-2.888;2023-04-25T14:20:46;25.52;;;7.75;;
28848;SDS011;15981;43.292;-2.888;2023-04-25T14:23:11;24.35;;;7.90;;
28848;SDS011;15981;43.292;-2.888;2023-04-25T14:25:37;21.67;;;7.55;;
28848;SDS011;15981;43.292;-2.888;2023-04-25T14:28:03;27.47;;;7.77;;
28848;SDS011;15981;43.292;-2.888;2023-04-25T14:30:29;21.02;;;7.32;;
28848;SDS011;15981;43.292;-2.888;2023-04-25T14:32:55;26.67;;;8.67;;
28848;SDS011;15981;43.292;-2.888;2023-04-25T14:35:21;22.67;;;7.80;;
28848;SDS011;15981;43.292;-2.888;2023-04-25T14:37:46;21.95;;;8.38;;